Time;durP1;ratioP1;P1;durP2;ratioP2;P2;SDS_P1;SDS_P2;PMS_P1;PMS_P2;Temp;Humidity;BMP_temperature;BMP_pressure;BME280_temperature;BME280_humidity;BME280_pressure;Samples;Min_cycle;Max_cycle;Signal;HPM_P1;HPM_P2
2021/05/11 00:04:43;;;;;;;5.45;2.97;;;;;;;16.54;100.00;95364.13;5007882;28;20034;-63
2021/05/11 00:07:11;;;;;;;4.45;2.85;;;;;;;16.48;100.00;95369.47;5006726;28;20062;-62
2021/05/11 00:09:40;;;;;;;3.85;3.13;;;;;;;16.54;100.00;95373.97;5002829;28;20433;-63
2021/05/11 00:12:11;;;;;;;4.10;2.85;;;;;;;16.35;100.00;95373.00;5004505;28;20107;-64
2021/05/11 00:14:39;;;;;;;4.00;2.80;;;;;;;16.46;100.00;95371.53;5014816;28;20044;-64
2021/05/11 00:17:07;;;;;;;4.95;2.95;;;;;;;16.52;100.00;95370.72;5004099;28;20076;-63
2021/05/11 00:19:36;;;;;;;5.18;3.03;;;;;;;16.29;100.00;95377.28;5005229;28;20706;-63
2021/05/11 00:22:04;;;;;;;5.28;3.08;;;;;;;16.18;100.00;95375.25;5005789;28;20512;-64
2021/05/11 00:24:31;;;;;;;4.05;3.03;;;;;;;16.08;100.00;95378.34;5001193;28;20551;-61
2021/05/11 00:27:00;;;;;;;8.10;2.88;;;;;;;15.98;100.00;95371.81;5004274;28;20084;-63
2021/05/11 00:29:29;;;;;;;4.72;2.97;;;;;;;15.79;100.00;95374.22;5008526;28;20085;-62
2021/05/11 00:31:59;;;;;;;4.00;3.00;;;;;;;15.73;100.00;95383.03;5004405;28;20045;-64
2021/05/11 00:34:27;;;;;;;4.53;2.70;;;;;;;15.63;100.00;95383.41;4985088;28;20064;-64
2021/05/11 00:36:56;;;;;;;5.57;2.85;;;;;;;15.58;100.00;95371.72;5006956;28;20496;-64
2021/05/11 00:39:25;;;;;;;3.47;2.50;;;;;;;15.44;100.00;95385.00;4997751;28;20050;-63
2021/05/11 00:41:53;;;;;;;3.25;2.50;;;;;;;15.42;100.00;95373.75;5012850;28;20066;-63
2021/05/11 00:44:23;;;;;;;4.43;2.30;;;;;;;15.26;100.00;95366.16;5004489;28;20622;-65
2021/05/11 00:46:57;;;;;;;3.85;2.25;;;;;;;15.26;100.00;95360.84;5007631;28;20038;-63
2021/05/11 00:49:27;;;;;;;3.70;2.40;;;;;;;15.38;100.00;95355.75;5004201;28;20054;-63
2021/05/11 00:51:55;;;;;;;3.05;2.30;;;;;;;15.61;100.00;95350.88;5002183;28;20038;-63
2021/05/11 00:54:24;;;;;;;3.63;2.38;;;;;;;15.30;100.00;95345.31;5005490;28;20077;-63
2021/05/11 00:56:53;;;;;;;5.30;2.30;;;;;;;15.51;100.00;95360.28;5011786;28;20077;-65
2021/05/11 00:59:25;;;;;;;5.78;2.10;;;;;;;15.48;100.00;95340.22;5010026;28;20053;-63
2021/05/11 01:01:56;;;;;;;3.28;1.88;;;;;;;15.24;100.00;95349.59;5001929;28;20704;-61
2021/05/11 01:04:25;;;;;;;3.40;2.00;;;;;;;15.26;100.00;95352.06;5007979;28;20074;-61
2021/05/11 01:06:55;;;;;;;2.38;1.83;;;;;;;15.05;100.00;95350.38;5009232;28;20069;-62
2021/05/11 01:09:24;;;;;;;5.45;2.22;;;;;;;15.09;100.00;95357.72;5006135;28;20105;-62
2021/05/11 01:11:54;;;;;;;2.55;2.08;;;;;;;15.33;100.00;95352.88;5014873;28;20049;-62
2021/05/11 01:14:25;;;;;;;3.60;2.30;;;;;;;15.40;100.00;95348.41;5009951;28;20516;-63
2021/05/11 01:16:56;;;;;;;2.88;1.98;;;;;;;15.14;100.00;95349.16;5007897;28;20457;-63
2021/05/11 01:19:28;;;;;;;4.30;2.28;;;;;;;15.19;100.00;95349.38;5006476;28;20040;-61
2021/05/11 01:25:09;;;;;;;4.72;2.00;;;;;;;14.83;100.00;95339.03;4996731;28;20570;-63
2021/05/11 01:27:49;;;;;;;3.47;1.70;;;;;;;14.89;100.00;95348.88;4999170;28;20034;-63
2021/05/11 01:47:43;;;;;;;2.58;1.50;;;;;;;14.29;100.00;95314.09;4957578;28;20102;-63
2021/05/11 01:50:17;;;;;;;3.00;1.58;;;;;;;14.42;100.00;95314.16;4962775;28;20081;-62
2021/05/11 01:52:56;;;;;;;1.75;1.50;;;;;;;14.22;100.00;95318.53;4992381;28;20434;-63
2021/05/11 01:55:35;;;;;;;2.33;1.40;;;;;;;14.15;100.00;95323.00;4988230;28;20586;-62
2021/05/11 02:23:27;;;;;;;1.80;1.50;;;;;;;13.90;100.00;95320.78;5006616;28;20375;-64
2021/05/11 02:25:56;;;;;;;2.25;1.80;;;;;;;13.86;100.00;95324.81;5005749;28;20046;-62
2021/05/11 02:28:26;;;;;;;3.20;2.30;;;;;;;13.92;100.00;95333.84;5006907;28;20065;-64
2021/05/11 02:30:55;;;;;;;1.60;1.50;;;;;;;13.68;100.00;95353.63;5008407;28;20173;-63
2021/05/11 02:33:24;;;;;;;1.92;1.70;;;;;;;13.58;100.00;95359.25;5011871;28;20065;-65
2021/05/11 02:35:52;;;;;;;1.70;1.60;;;;;;;13.63;100.00;95353.38;5008136;28;20528;-63
2021/05/11 02:38:21;;;;;;;2.72;1.88;;;;;;;13.72;100.00;95355.69;5005910;28;20359;-65
2021/05/11 02:40:49;;;;;;;3.28;1.80;;;;;;;13.59;100.00;95346.81;5007786;28;20127;-61
2021/05/11 02:43:20;;;;;;;2.90;1.80;;;;;;;13.56;100.00;95336.59;5006546;28;20085;-64
2021/05/11 02:45:50;;;;;;;2.00;1.90;;;;;;;13.51;100.00;95326.59;5008400;28;20073;-62
2021/05/11 02:48:18;;;;;;;1.90;1.80;;;;;;;13.53;100.00;95330.69;5014461;28;20057;-57
2021/05/11 02:50:47;;;;;;;2.38;2.10;;;;;;;13.53;100.00;95312.16;5007461;28;20100;-62
2021/05/11 02:53:16;;;;;;;2.58;1.95;;;;;;;13.96;100.00;95298.78;5007260;28;20096;-64
2021/05/11 02:55:45;;;;;;;2.40;2.20;;;;;;;13.65;100.00;95328.31;5010363;28;20066;-64
2021/05/11 02:58:15;;;;;;;2.30;2.10;;;;;;;13.39;100.00;95347.47;5005339;28;20038;-60
2021/05/11 03:00:45;;;;;;;2.33;1.90;;;;;;;13.15;100.00;95361.84;5011352;28;20727;-62
2021/05/11 03:03:14;;;;;;;2.60;1.92;;;;;;;13.24;100.00;95346.69;5007376;28;20100;-63
2021/05/11 03:05:43;;;;;;;3.75;1.95;;;;;;;13.33;100.00;95342.09;5009120;28;20069;-64
2021/05/11 03:08:14;;;;;;;4.15;2.22;;;;;;;13.13;100.00;95345.34;5006027;28;20069;-64
2021/05/11 03:10:42;;;;;;;;;;;;;;;13.22;100.00;95343.41;5010451;28;20058;-64
2021/05/11 03:13:11;;;;;;;2.60;2.05;;;;;;;13.18;100.00;95336.81;5006292;28;19921;-65
2021/05/11 03:15:39;;;;;;;3.08;2.33;;;;;;;13.24;100.00;95342.22;5005288;28;20061;-64
2021/05/11 03:18:08;;;;;;;2.35;2.00;;;;;;;13.36;100.00;95341.72;5007467;28;20456;-64
2021/05/11 03:20:37;;;;;;;2.63;2.42;;;;;;;13.28;100.00;95324.13;5006653;28;20088;-62
2021/05/11 03:23:06;;;;;;;2.42;2.20;;;;;;;13.25;100.00;95320.03;5009877;28;20070;-66
2021/05/11 03:25:35;;;;;;;2.53;2.17;;;;;;;13.22;100.00;95314.28;5007836;28;20066;-63
2021/05/11 03:28:03;;;;;;;2.80;2.42;;;;;;;13.13;100.00;95318.88;5002513;28;20065;-63
2021/05/11 03:30:32;;;;;;;2.78;2.00;;;;;;;13.18;100.00;95323.59;5005999;28;20088;-62
2021/05/11 03:33:00;;;;;;;2.38;2.17;;;;;;;13.05;100.00;95327.75;5005823;28;20034;-63
2021/05/11 03:35:28;;;;;;;2.47;2.13;;;;;;;13.08;100.00;95334.50;5009631;28;20740;-64
2021/05/11 03:37:58;;;;;;;3.67;2.30;;;;;;;12.94;100.00;95338.00;5004084;28;20068;-63
2021/05/11 03:40:26;;;;;;;2.75;2.20;;;;;;;12.80;100.00;95334.38;5005743;28;20066;-65
2021/05/11 03:43:00;;;;;;;2.45;2.25;;;;;;;12.87;100.00;95345.03;5004224;28;20046;-64
2021/05/11 03:45:35;;;;;;;2.25;2.03;;;;;;;13.00;100.00;95348.66;5004367;28;20177;-64
2021/05/11 03:48:05;;;;;;;3.58;2.35;;;;;;;13.07;100.00;95357.50;5009453;28;20077;-64
2021/05/11 03:50:34;;;;;;;5.00;2.33;;;;;;;12.96;100.00;95360.63;5007027;28;20081;-63
2021/05/11 03:53:04;;;;;;;2.33;2.00;;;;;;;12.80;100.00;95361.66;5004747;28;20540;-66
2021/05/11 03:55:33;;;;;;;3.08;2.20;;;;;;;12.93;100.00;95362.81;5006326;28;20066;-63
2021/05/11 03:58:04;;;;;;;3.38;2.20;;;;;;;13.02;100.00;95361.72;5003055;28;20073;-63
2021/05/11 04:00:34;;;;;;;3.30;2.30;;;;;;;12.94;100.00;95360.00;5004220;28;20072;-63
2021/05/11 04:03:03;;;;;;;2.63;2.25;;;;;;;12.96;100.00;95350.03;5011222;28;20045;-64
2021/05/11 04:05:33;;;;;;;3.33;2.30;;;;;;;12.96;100.00;95346.56;5007205;28;20046;-62
2021/05/11 04:08:03;;;;;;;2.10;1.90;;;;;;;12.88;100.00;95352.81;5004413;28;20066;-61
2021/05/11 04:10:35;;;;;;;2.77;2.30;;;;;;;13.06;100.00;95344.44;5004130;28;20071;-60
2021/05/11 04:18:36;;;;;;;3.40;1.85;;;;;;;13.10;100.00;95351.00;4986583;28;20077;-61
2021/05/11 04:21:05;;;;;;;2.97;2.10;;;;;;;12.83;100.00;95336.66;5004145;28;20041;-63
2021/05/11 04:23:37;;;;;;;4.75;2.30;;;;;;;12.88;100.00;95334.28;5007022;28;20077;-63
2021/05/11 04:26:06;;;;;;;;;;;;;;;12.86;100.00;95332.81;5006983;28;20049;-64
2021/05/11 04:28:35;;;;;;;2.13;1.92;;;;;;;12.97;100.00;95341.09;5005147;28;19921;-61
2021/05/11 04:31:05;;;;;;;3.63;2.40;;;;;;;12.94;100.00;95338.00;5008328;28;20045;-63
2021/05/11 04:33:36;;;;;;;2.15;1.80;;;;;;;12.97;100.00;95340.25;5005426;28;20088;-62
2021/05/11 04:36:07;;;;;;;2.25;1.90;;;;;;;13.08;100.00;95334.50;5005353;28;20089;-63
2021/05/11 04:38:37;;;;;;;2.65;2.30;;;;;;;12.98;100.00;95337.44;5001118;28;20092;-62
2021/05/11 04:41:08;;;;;;;2.55;2.30;;;;;;;12.83;100.00;95336.66;5004229;28;20053;-64
2021/05/11 04:43:39;;;;;;;2.97;2.08;;;;;;;12.92;100.00;95332.09;5003567;28;20056;-61
2021/05/11 04:46:15;;;;;;;3.10;2.20;;;;;;;12.95;100.00;95327.22;5005054;28;20061;-61
2021/05/11 04:48:45;;;;;;;2.20;1.95;;;;;;;12.81;100.00;95325.44;5006908;28;20053;-63
2021/05/11 04:51:15;;;;;;;2.53;1.90;;;;;;;12.77;100.00;95321.53;5001442;28;20576;-64
2021/05/11 04:53:45;;;;;;;2.45;2.20;;;;;;;13.04;100.00;95323.47;5005254;28;20054;-65
2021/05/11 04:56:15;;;;;;;2.85;1.92;;;;;;;12.99;100.00;95327.69;5004943;28;20046;-63
2021/05/11 04:58:45;;;;;;;2.45;2.25;;;;;;;13.13;100.00;95318.88;5002744;28;20437;-65
2021/05/11 05:01:14;;;;;;;3.17;2.25;;;;;;;13.43;100.00;95329.38;5002610;28;20041;-62
2021/05/11 05:03:46;;;;;;;2.20;1.92;;;;;;;13.23;100.00;95321.22;5004166;28;20465;-63
2021/05/11 05:06:15;;;;;;;2.30;2.03;;;;;;;13.46;100.00;95316.56;5002686;28;20050;-62
2021/05/11 05:08:45;;;;;;;6.70;2.65;;;;;;;14.17;100.00;95295.25;5007356;28;20540;-62
2021/05/11 05:11:17;;;;;;;3.15;2.45;;;;;;;16.88;100.00;95287.66;5006706;28;20437;-63
2021/05/11 05:13:46;;;;;;;7.88;2.38;;;;;;;16.94;100.00;95297.47;5002975;28;20061;-64
2021/05/11 05:16:15;;;;;;;2.10;1.75;;;;;;;17.79;100.00;95302.50;5002229;28;20038;-63
2021/05/11 05:18:43;;;;;;;4.18;1.65;;;;;;;18.11;100.00;95308.56;5004879;28;20062;-64
2021/05/11 05:21:14;;;;;;;1.92;1.80;;;;;;;18.42;100.00;95315.63;5002348;28;20512;-62
2021/05/11 05:23:47;;;;;;;2.03;1.50;;;;;;;18.39;100.00;95313.41;5006559;28;20396;-63
2021/05/11 05:26:20;;;;;;;2.00;1.55;;;;;;;18.26;100.00;95335.69;5008245;28;20048;-63
2021/05/11 05:28:50;;;;;;;2.38;1.50;;;;;;;18.50;100.00;95320.66;5003414;28;20440;-64
2021/05/11 05:31:18;;;;;;;3.60;1.40;;;;;;;18.41;100.00;95327.34;5001540;28;20065;-58
2021/05/11 05:33:48;;;;;;;2.10;1.38;;;;;;;18.34;100.00;95347.13;4986754;28;20038;-61
2021/05/11 05:36:21;;;;;;;1.80;1.50;;;;;;;18.22;100.00;95342.50;5004366;28;20037;-62
2021/05/11 05:38:50;;;;;;;1.60;1.25;;;;;;;18.23;100.00;95349.47;5000566;28;20092;-62
2021/05/11 05:41:24;;;;;;;1.42;1.27;;;;;;;18.05;100.00;95345.97;5007837;28;20057;-63
2021/05/11 05:43:57;;;;;;;1.88;1.40;;;;;;;17.96;100.00;95346.25;5007333;28;20504;-61
2021/05/11 05:46:27;;;;;;;2.97;1.60;;;;;;;16.76;100.00;95348.75;4988247;28;20034;-63
2021/05/11 05:48:56;;;;;;;1.92;1.75;;;;;;;17.04;100.00;95342.31;5005556;28;20088;-61
2021/05/11 05:51:27;;;;;;;2.30;1.83;;;;;;;17.07;100.00;95339.22;4996655;28;20045;-62
2021/05/11 05:53:57;;;;;;;3.95;1.88;;;;;;;16.88;100.00;95342.78;5000928;28;20066;-61
2021/05/11 05:56:28;;;;;;;2.90;1.73;;;;;;;17.27;100.00;95336.41;5011482;28;20065;-59
2021/05/11 05:58:58;;;;;;;2.60;2.00;;;;;;;17.53;100.00;95330.94;5004908;28;20531;-62
2021/05/11 06:01:28;;;;;;;3.33;1.73;;;;;;;17.53;100.00;95332.78;5005543;28;20574;-61
2021/05/11 06:04:10;;;;;;;2.17;1.90;;;;;;;16.87;100.00;95344.63;5007804;28;20038;-63
2021/05/11 06:06:40;;;;;;;2.70;1.90;;;;;;;16.81;100.00;95342.81;5008032;28;20037;-61
2021/05/11 06:09:13;;;;;;;2.10;1.90;;;;;;;16.93;100.00;95356.25;5005683;28;20451;-60
2021/05/11 06:11:46;;;;;;;2.30;1.90;;;;;;;16.61;100.00;95361.47;4994587;28;20118;-60
2021/05/11 06:14:24;;;;;;;2.25;2.00;;;;;;;16.89;100.00;95371.03;5006702;28;20515;-62
2021/05/11 06:19:41;;;;;;;3.28;2.05;;;;;;;17.34;100.00;95361.19;4990440;28;20041;-63
2021/05/11 06:22:11;;;;;;;2.88;2.00;;;;;;;17.20;100.00;95357.78;5009303;28;20128;-63
2021/05/11 06:24:42;;;;;;;3.70;2.08;;;;;;;17.40;100.00;95362.19;5002678;28;20042;-62
2021/05/11 06:27:12;;;;;;;2.10;1.90;;;;;;;17.19;100.00;95358.81;4990997;28;20499;-62
2021/05/11 06:29:44;;;;;;;3.63;1.75;;;;;;;17.24;100.00;95364.34;5008849;28;20069;-63
2021/05/11 06:32:15;;;;;;;2.67;2.20;;;;;;;17.73;100.00;95365.47;4990720;28;20029;-62
2021/05/11 06:34:47;;;;;;;3.42;1.80;;;;;;;17.38;100.00;95358.91;4987940;28;20038;-62
2021/05/11 06:37:18;;;;;;;3.55;2.03;;;;;;;17.29;100.00;95351.19;5006222;28;20112;-62
2021/05/11 06:39:50;;;;;;;3.30;2.03;;;;;;;17.18;100.00;95351.03;5002880;28;20544;-62
2021/05/11 06:42:22;;;;;;;2.15;1.95;;;;;;;17.19;100.00;95353.47;4991261;28;20042;-62
2021/05/11 06:45:03;;;;;;;2.22;2.03;;;;;;;17.08;100.00;95351.50;5015816;28;20057;-63
2021/05/11 06:50:29;;;;;;;2.53;2.10;;;;;;;17.20;100.00;95351.63;4986635;28;20042;-63
2021/05/11 06:53:11;;;;;;;2.50;2.20;;;;;;;17.49;100.00;95343.06;5008656;28;20399;-59
2021/05/11 06:55:44;;;;;;;3.03;2.28;;;;;;;17.44;100.00;95337.53;5003352;28;20038;-64
2021/05/11 06:58:31;;;;;;;2.15;1.95;;;;;;;17.45;100.00;95354.38;5005627;28;20520;-61
2021/05/11 07:00:59;;;;;;;3.20;2.10;;;;;;;17.97;100.00;95353.22;5004993;28;20058;-61
2021/05/11 07:03:28;;;;;;;2.53;2.03;;;;;;;18.11;100.00;95345.91;5005273;28;20053;-63
2021/05/11 07:05:59;;;;;;;3.47;2.10;;;;;;;18.23;100.00;95337.97;5003650;28;20092;-63
2021/05/11 07:08:33;;;;;;;2.20;1.88;;;;;;;18.59;100.00;95321.19;5001308;28;20085;-59
2021/05/11 07:11:09;;;;;;;2.30;2.10;;;;;;;18.73;100.00;95320.03;4984137;28;20046;-64
2021/05/11 07:13:37;;;;;;;3.03;2.10;;;;;;;18.03;100.00;95315.00;5006578;28;20069;-63
2021/05/11 07:16:06;;;;;;;2.30;2.10;;;;;;;18.46;100.00;95300.78;4989522;28;20094;-60
2021/05/11 07:18:35;;;;;;;2.30;2.10;;;;;;;18.75;100.00;95279.75;5005212;28;20112;-62
2021/05/11 07:21:05;;;;;;;2.88;2.28;;;;;;;18.85;100.00;95276.53;4986350;28;20046;-63
2021/05/11 07:23:34;;;;;;;2.80;2.50;;;;;;;18.71;100.00;95270.50;5009732;28;20037;-64
2021/05/11 07:26:10;;;;;;;2.53;2.10;;;;;;;18.91;100.00;95272.97;5006218;28;20065;-61
2021/05/11 07:29:00;;;;;;;3.08;2.20;;;;;;;18.49;100.00;95275.50;5005764;28;20072;-59
2021/05/11 07:31:28;;;;;;;;;;;;;;;18.25;100.00;95267.34;4987941;28;20038;-62
2021/05/11 07:33:59;;;;;;;3.60;2.20;;;;;;;18.21;100.00;95278.69;5005972;28;19917;-61
2021/05/11 07:36:28;;;;;;;3.50;2.35;;;;;;;18.30;100.00;95273.88;5009541;28;20099;-61
2021/05/11 07:38:58;;;;;;;2.83;2.23;;;;;;;18.39;100.00;95278.69;4987188;28;20046;-62
2021/05/11 07:41:28;;;;;;;3.13;2.40;;;;;;;18.43;100.00;95266.53;5004089;28;20907;-57
2021/05/11 07:43:58;;;;;;;3.22;2.35;;;;;;;18.26;100.00;95262.81;5003587;28;20084;-61
2021/05/11 07:46:49;;;;;;;2.60;2.20;;;;;;;17.75;100.00;95275.38;4996506;28;20091;-62
2021/05/11 08:14:37;;;;;;;5.75;3.70;;;;;;;18.12;100.00;95238.13;5005451;28;20046;-62
2021/05/11 08:17:06;;;;;;;4.28;2.35;;;;;;;17.93;100.00;95245.31;5002877;28;20073;-62
2021/05/11 08:22:44;;;;;;;4.93;2.90;;;;;;;17.48;100.00;95236.66;5008028;28;20038;-62
2021/05/11 08:28:07;;;;;;;3.90;2.63;;;;;;;17.99;100.00;95235.59;5000700;28;20119;-60
2021/05/11 08:30:37;;;;;;;3.28;2.80;;;;;;;18.39;100.00;95236.00;4995712;28;20538;-62
2021/05/11 08:33:07;;;;;;;5.50;2.63;;;;;;;18.56;100.00;95246.06;5003605;28;20087;-62
2021/05/11 08:35:36;;;;;;;3.92;2.78;;;;;;;18.50;100.00;95250.44;5005345;28;20028;-63
2021/05/11 08:38:06;;;;;;;4.63;2.90;;;;;;;18.61;100.00;95254.22;5000443;28;20132;-63
2021/05/11 08:40:37;;;;;;;4.40;2.70;;;;;;;18.39;100.00;95238.66;5002572;28;20044;-63
2021/05/11 08:43:24;;;;;;;4.00;2.80;;;;;;;18.38;100.00;95237.03;5002659;28;20436;-63
2021/05/11 08:45:56;;;;;;;4.35;3.05;;;;;;;18.14;100.00;95236.06;4999664;28;20057;-62
2021/05/11 08:48:25;;;;;;;4.75;3.00;;;;;;;18.27;100.00;95243.94;4986620;28;20042;-63
2021/05/11 08:50:59;;;;;;;3.65;2.75;;;;;;;17.49;100.00;95256.97;4989609;28;20062;-62
2021/05/11 09:04:47;;;;;;;4.18;2.83;;;;;;;18.19;100.00;95267.41;5003853;28;20030;-59
2021/05/11 09:24:52;;;;;;;5.75;2.80;;;;;;;19.14;100.00;95250.88;5006197;28;20100;-61
2021/05/11 09:27:30;;;;;;;3.38;2.75;;;;;;;19.05;100.00;95255.72;5004867;28;20088;-62
2021/05/11 09:30:15;;;;;;;3.70;2.78;;;;;;;19.33;100.00;95256.97;5007379;28;20068;-59
2021/05/11 09:33:05;;;;;;;14.38;2.90;;;;;;;19.40;100.00;95261.16;5010507;28;20726;-60
2021/05/11 09:56:36;;;;;;;3.40;2.80;;;;;;;21.34;91.73;95232.41;4937481;28;20071;-65
2021/05/11 10:11:11;;;;;;;5.18;2.72;;;;;;;22.34;81.88;95235.28;5003838;28;20080;-61
2021/05/11 10:48:41;;;;;;;4.35;3.42;;;;;;;22.11;84.33;95169.16;5006539;28;20041;-59
2021/05/11 10:51:18;;;;;;;3.63;3.00;;;;;;;21.89;88.54;95172.63;5004019;28;20076;-62
2021/05/11 10:54:00;;;;;;;3.88;3.00;;;;;;;22.29;83.64;95168.88;5008527;28;20488;-60
2021/05/11 10:56:53;;;;;;;4.68;3.40;;;;;;;22.10;86.30;95170.22;4993004;28;20052;-61
2021/05/11 10:59:41;;;;;;;4.53;3.25;;;;;;;22.18;86.52;95164.44;5011072;28;20326;-61
2021/05/11 11:05:09;;;;;;;5.40;3.30;;;;;;;21.17;97.95;95162.66;4986578;28;20100;-64
2021/05/11 11:07:39;;;;;;;5.18;3.50;;;;;;;21.68;95.29;95150.06;5006314;28;20531;-61
2021/05/11 11:10:09;;;;;;;6.15;3.47;;;;;;;22.48;89.17;95150.59;5005076;28;20038;-58
2021/05/11 11:12:41;;;;;;;4.30;3.47;;;;;;;22.98;79.84;95162.94;5004880;28;20516;-63
2021/05/11 11:15:17;;;;;;;4.22;3.35;;;;;;;22.70;76.53;95162.09;4987211;28;20073;-63
2021/05/11 11:17:52;;;;;;;5.07;3.47;;;;;;;22.59;79.49;95167.63;5011976;28;20042;-63
2021/05/11 11:20:32;;;;;;;8.43;3.28;;;;;;;22.32;81.94;95160.31;5003858;28;20532;-62
2021/05/11 11:26:04;;;;;;;5.13;3.40;;;;;;;23.54;73.02;95146.50;5010657;28;20042;-63
2021/05/11 11:28:33;;;;;;;9.48;3.40;;;;;;;22.97;79.40;95146.00;5002691;28;20069;-63
2021/05/11 11:31:21;;;;;;;4.53;3.30;;;;;;;23.64;71.56;95138.47;5006101;28;20049;-62
2021/05/11 11:33:50;;;;;;;5.55;3.33;;;;;;;23.76;72.49;95141.81;5005517;28;20088;-61
2021/05/11 11:36:30;;;;;;;7.30;3.33;;;;;;;23.94;67.46;95129.78;5002301;28;20074;-62
2021/05/11 11:39:04;;;;;;;4.28;3.22;;;;;;;23.88;68.31;95128.97;5002125;28;20046;-63
2021/05/11 11:41:34;;;;;;;9.07;3.25;;;;;;;24.03;69.21;95125.53;5007495;28;20135;-62
2021/05/11 11:44:04;;;;;;;6.22;2.97;;;;;;;23.96;71.89;95124.16;5004312;28;20609;-62
2021/05/11 11:46:33;;;;;;;5.28;3.30;;;;;;;23.72;73.17;95123.75;5002753;28;20038;-61
2021/05/11 11:49:08;;;;;;;4.78;3.50;;;;;;;24.18;71.95;95116.72;5004510;28;20100;-63
2021/05/11 11:51:37;;;;;;;4.75;3.40;;;;;;;24.32;72.62;95119.72;5000811;28;20536;-61
2021/05/11 11:54:13;;;;;;;4.22;3.20;;;;;;;24.40;70.59;95127.34;5005481;28;20077;-62
2021/05/11 11:59:28;;;;;;;5.53;3.15;;;;;;;24.03;69.78;95116.66;5004332;28;20050;-62
2021/05/11 12:02:00;;;;;;;6.47;3.20;;;;;;;23.89;73.19;95100.16;5003545;28;20066;-61
2021/05/11 12:04:31;;;;;;;3.95;2.92;;;;;;;24.22;64.38;95098.13;5005899;28;20038;-62
2021/05/11 12:07:04;;;;;;;4.22;2.78;;;;;;;24.75;64.36;95098.88;5007438;28;20069;-64
2021/05/11 12:09:33;;;;;;;5.05;2.63;;;;;;;23.60;73.35;95105.88;5004297;28;20068;-62
2021/05/11 12:12:02;;;;;;;10.45;3.30;;;;;;;23.65;73.77;95105.13;5001104;28;20049;-61
2021/05/11 12:14:37;;;;;;;3.47;2.70;;;;;;;23.57;78.68;95119.03;5008458;28;20116;-62
2021/05/11 12:17:07;;;;;;;4.10;2.80;;;;;;;22.78;82.05;95144.72;5003557;28;20066;-63
2021/05/11 12:19:43;;;;;;;5.13;2.60;;;;;;;22.08;95.38;95148.19;4995522;28;20046;-63
2021/05/11 12:22:15;;;;;;;4.40;2.92;;;;;;;21.51;98.59;95157.31;5006753;28;20068;-61
2021/05/11 12:24:44;;;;;;;3.90;3.08;;;;;;;21.86;100.00;95159.72;5001742;28;20663;-62
2021/05/11 12:27:15;;;;;;;5.35;2.92;;;;;;;21.22;100.00;95173.44;5002730;28;20030;-62
2021/05/11 12:30:00;;;;;;;4.13;3.47;;;;;;;20.94;100.00;95182.34;5008357;28;20393;-62
2021/05/11 12:32:30;;;;;;;4.53;3.50;;;;;;;20.83;100.00;95185.91;5002023;28;20447;-63
2021/05/11 12:35:05;;;;;;;5.18;3.78;;;;;;;21.09;100.00;95179.94;4986070;28;20139;-62
2021/05/11 12:37:51;;;;;;;6.28;3.90;;;;;;;20.87;100.00;95189.72;5002609;28;20118;-63
2021/05/11 12:40:29;;;;;;;6.05;4.20;;;;;;;20.99;100.00;95184.28;5001982;28;20077;-60
2021/05/11 12:43:02;;;;;;;6.32;3.88;;;;;;;20.33;100.00;95178.47;5000760;28;20076;-62
2021/05/11 12:45:36;;;;;;;3.83;3.30;;;;;;;20.67;100.00;95192.81;5006220;28;20065;-63
2021/05/11 12:48:07;;;;;;;5.05;3.38;;;;;;;20.41;100.00;95188.03;5007497;28;20080;-63
2021/05/11 12:50:39;;;;;;;6.18;3.53;;;;;;;20.22;100.00;95182.81;5010589;28;20077;-61
2021/05/11 12:53:27;;;;;;;5.78;4.75;;;;;;;20.04;100.00;95183.78;5014604;28;20068;-60
2021/05/11 12:58:52;;;;;;;4.20;3.70;;;;;;;20.20;100.00;95179.56;5002983;28;20034;-60
2021/05/11 13:01:45;;;;;;;8.82;3.50;;;;;;;19.86;100.00;95183.91;5005892;28;20520;-62
2021/05/11 13:15:48;;;;;;;5.30;3.97;;;;;;;20.34;100.00;95182.78;4976129;28;20054;-61
2021/05/11 13:26:40;;;;;;;6.53;4.60;;;;;;;20.04;100.00;95169.59;5008002;28;20284;-61
2021/05/11 13:29:15;;;;;;;6.00;4.63;;;;;;;19.88;100.00;95184.47;5006944;28;20046;-60
2021/05/11 13:31:49;;;;;;;5.68;5.07;;;;;;;19.90;100.00;95169.84;5007299;28;20130;-60
2021/05/11 13:34:21;;;;;;;6.00;5.05;;;;;;;20.07;100.00;95169.94;4988454;28;20081;-62
2021/05/11 13:36:50;;;;;;;6.60;5.07;;;;;;;20.47;100.00;95177.13;5009305;28;20042;-61
2021/05/11 13:39:20;;;;;;;5.72;5.18;;;;;;;20.73;100.00;95183.03;5006488;28;20412;-63
2021/05/11 13:41:50;;;;;;;5.80;5.05;;;;;;;20.85;100.00;95176.59;5012542;28;20054;-62
2021/05/11 13:44:20;;;;;;;5.43;4.70;;;;;;;20.92;100.00;95176.44;5006100;28;20038;-62
2021/05/11 13:46:49;;;;;;;8.40;4.97;;;;;;;20.48;100.00;95178.78;5005100;28;20070;-63
2021/05/11 13:49:20;;;;;;;6.32;5.00;;;;;;;20.47;100.00;95181.69;5006540;28;20050;-60
2021/05/11 13:51:50;;;;;;;6.03;4.55;;;;;;;20.62;100.00;95182.03;5008509;28;20034;-62
2021/05/11 13:54:19;;;;;;;6.55;5.18;;;;;;;20.53;100.00;95183.44;5007324;28;20077;-62
2021/05/11 13:56:58;;;;;;;7.40;5.30;;;;;;;20.19;100.00;95172.56;5010101;28;20049;-63
2021/05/11 14:02:32;;;;;;;6.55;5.28;;;;;;;20.57;100.00;95176.56;5007513;28;20447;-62
2021/05/11 14:05:01;;;;;;;6.35;5.07;;;;;;;20.83;100.00;95194.75;4987172;28;20092;-63
2021/05/11 14:07:32;;;;;;;7.45;5.07;;;;;;;20.98;100.00;95186.16;5010013;28;20504;-61
2021/05/11 14:10:00;;;;;;;7.60;5.60;;;;;;;20.81;100.00;95194.16;5007685;28;20058;-60
2021/05/11 14:12:30;;;;;;;7.35;4.93;;;;;;;20.57;100.00;95206.03;5005076;28;20061;-61
2021/05/11 14:14:59;;;;;;;5.78;5.07;;;;;;;20.33;100.00;95210.59;5012428;28;20034;-63
2021/05/11 14:17:28;;;;;;;6.20;5.60;;;;;;;20.17;100.00;95216.69;5011888;28;20053;-63
2021/05/11 14:19:58;;;;;;;10.13;6.53;;;;;;;20.08;100.00;95208.19;5006485;28;20045;-62
2021/05/11 14:22:26;;;;;;;7.78;6.68;;;;;;;20.14;100.00;95216.09;5010097;28;20065;-60
2021/05/11 14:24:56;;;;;;;11.75;7.20;;;;;;;19.92;100.00;95218.59;5008223;28;20121;-62
2021/05/11 14:27:25;;;;;;;15.65;8.23;;;;;;;19.54;100.00;95220.84;5004275;28;20091;-64
2021/05/11 14:29:55;;;;;;;;;;;;;;;19.46;100.00;95219.34;5011198;28;20558;-61
2021/05/11 14:32:24;;;;;;;11.55;8.52;;;;;;;19.49;100.00;95216.19;5003815;28;19921;-63
2021/05/11 14:34:53;;;;;;;11.02;9.57;;;;;;;19.34;100.00;95223.84;4988046;28;20058;-62
2021/05/11 14:37:22;;;;;;;11.07;8.82;;;;;;;19.30;100.00;95228.81;5006348;28;20128;-61
2021/05/11 14:39:51;;;;;;;12.38;9.70;;;;;;;19.21;100.00;95231.03;5006946;28;20073;-58
2021/05/11 14:42:22;;;;;;;13.43;10.43;;;;;;;19.53;100.00;95220.03;5004168;28;20061;-59
2021/05/11 14:44:54;;;;;;;13.05;10.27;;;;;;;19.45;100.00;95229.22;4993333;28;20042;-64
2021/05/11 14:47:23;;;;;;;14.20;11.15;;;;;;;19.27;100.00;95239.16;5008116;28;21394;-62
2021/05/11 14:49:51;;;;;;;25.13;10.82;;;;;;;19.18;100.00;95252.03;5010697;28;20531;-62
2021/05/11 14:52:20;;;;;;;12.30;10.70;;;;;;;19.19;100.00;95256.34;5006401;28;20061;-61
2021/05/11 14:54:50;;;;;;;13.40;10.65;;;;;;;19.61;100.00;95241.09;5007000;28;20128;-62
2021/05/11 14:57:19;;;;;;;10.55;8.77;;;;;;;19.51;100.00;95243.53;5006321;28;20054;-60
2021/05/11 14:59:48;;;;;;;11.55;10.25;;;;;;;19.67;100.00;95252.75;5014316;28;20034;-64
2021/05/11 15:02:17;;;;;;;13.02;11.23;;;;;;;19.74;100.00;95252.66;5003930;28;20748;-61
2021/05/11 15:04:45;;;;;;;13.77;10.65;;;;;;;19.76;100.00;95258.59;4987143;28;20370;-63
2021/05/11 15:07:13;;;;;;;11.48;9.80;;;;;;;19.52;100.00;95258.53;4986260;28;20092;-60
2021/05/11 15:09:42;;;;;;;13.13;9.18;;;;;;;19.21;100.00;95247.06;5003882;28;20065;-60
2021/05/11 15:12:13;;;;;;;11.43;10.02;;;;;;;19.23;100.00;95262.03;5005634;28;20042;-62
2021/05/11 15:14:42;;;;;;;14.23;9.38;;;;;;;18.86;100.00;95259.50;5015499;28;20060;-57
2021/05/11 15:19:57;;;;;;;14.85;10.75;;;;;;;18.82;100.00;95260.97;5001065;28;20442;-59
2021/05/11 15:22:27;;;;;;;12.77;10.15;;;;;;;18.70;100.00;95260.88;5005580;28;20046;-63
2021/05/11 15:24:56;;;;;;;12.63;9.40;;;;;;;18.53;100.00;95266.03;5007437;28;20057;-62
2021/05/11 15:27:25;;;;;;;13.07;10.75;;;;;;;18.70;100.00;95275.03;5006150;28;20073;-63
2021/05/11 15:29:54;;;;;;;11.93;9.45;;;;;;;18.55;100.00;95269.28;5011379;28;20073;-60
2021/05/11 15:32:40;;;;;;;14.90;12.15;;;;;;;18.61;100.00;95272.91;5005741;28;20045;-62